Stanton, North Dakota
Current Conditions -  °F | °C
As of 10:35 PM on Saturday 25 Oct 2014 (Local Time) from KHZE Reporting Station
Clear Clear  
Wind Chill: 40°   Ceiling: Unl
Heat Index: 45°   Visibility: 10mi
Dew Point: 30°   Wind: 8mph
Humidity: 57%   Direction: 130°SE
Pressure: 29.88"   Gusts: NA
Location:  47.32°N, 101.38°W
Report Text: KHZE 260435Z AUTO 13007KT 10SM CLR 07/M01 A2988 RMK AO2
Loading
Personal Weather Stations






























Interactive Weather Map
Tropical Storm Tracking
New forecast layout! Learn more

10-Day Weather Forecast

Advertisements
Track Severe Weather on mobile